Time;durP1;ratioP1;P1;durP2;ratioP2;P2;SDS_P1;SDS_P2;PMS_P1;PMS_P2;Temp;Humidity;BMP_temperature;BMP_pressure;BME280_temperature;BME280_humidity;BME280_pressure;Samples;Min_cycle;Max_cycle;Signal;HPM_P1;HPM_P2
2023/12/13 00:02:59;;;;;;;;;;;;;;;;;;;;;
2023/12/13 00:08:28;;;;;;;3.20;1.00;;;;;;;13.95;90.14;100732.53;10288233;28;98796;-88
2023/12/13 00:19:33;;;;;;;4.28;0.93;;;;;;;14.03;89.68;100731.28;10275749;28;96702;-91
2023/12/13 00:24:57;;;;;;;5.20;0.88;;;;;;;13.95;90.51;100738.66;10336695;28;96775;-91
2023/12/13 00:30:07;;;;;;;3.22;1.05;;;;;;;13.99;90.04;100736.72;10287362;28;97169;-91
2023/12/13 00:35:18;;;;;;;1.42;0.80;;;;;;;13.89;90.38;100733.66;10297162;28;96709;-90
2023/12/13 00:45:48;;;;;;;3.97;1.00;;;;;;;13.84;89.90;100746.22;10335176;28;96668;-90
2023/12/13 00:50:56;;;;;;;3.60;1.02;;;;;;;13.88;89.75;100742.53;10336093;28;97284;-90
2023/12/13 00:56:03;;;;;;;3.50;1.00;;;;;;;13.86;89.99;100747.03;10335307;28;97491;-89
2023/12/13 01:01:12;;;;;;;2.58;0.85;;;;;;;13.88;89.71;100746.94;10335651;28;96719;-90
2023/12/13 01:06:15;;;;;;;6.65;1.58;;;;;;;13.90;89.57;100760.97;10335973;28;97144;-90
2023/12/13 01:11:24;;;;;;;2.63;0.95;;;;;;;13.86;89.60;100748.81;10335404;28;96656;-90
2023/12/13 01:16:28;;;;;;;2.10;0.77;;;;;;;13.80;90.00;100742.00;10335732;28;97035;-90
2023/12/13 01:21:32;;;;;;;3.60;0.98;;;;;;;13.80;90.12;100741.13;10335423;28;97170;-90
2023/12/13 01:26:38;;;;;;;3.17;0.98;;;;;;;13.79;89.69;100740.28;10335230;28;97044;-89
2023/12/13 01:31:42;;;;;;;6.43;1.35;;;;;;;13.76;89.51;100734.28;10335471;28;96776;-90
2023/12/13 01:36:45;;;;;;;2.05;0.85;;;;;;;13.77;89.63;100736.84;10334032;28;96938;-90
2023/12/13 01:41:53;;;;;;;2.83;1.02;;;;;;;13.71;89.63;100746.84;10335012;28;96622;-89
2023/12/13 01:47:00;;;;;;;2.28;0.93;;;;;;;13.79;89.45;100737.66;10333773;28;97883;-88
2023/12/13 01:52:04;;;;;;;3.15;1.35;;;;;;;13.78;90.03;100743.00;10334679;28;96752;-89
2023/12/13 01:57:09;;;;;;;3.90;0.85;;;;;;;13.73;89.52;100755.59;10334536;28;96977;-89
2023/12/13 02:02:13;;;;;;;1.90;0.85;;;;;;;13.71;89.30;100736.28;10334062;28;97341;-89
2023/12/13 02:07:17;;;;;;;7.30;1.20;;;;;;;13.61;89.46;100752.53;10334481;28;97099;-89
2023/12/13 02:12:21;;;;;;;2.90;0.80;;;;;;;13.51;89.55;100766.22;10333990;28;96798;-88
2023/12/13 02:17:25;;;;;;;2.85;0.60;;;;;;;13.53;89.43;100764.38;10334315;28;97079;-88
2023/12/13 02:22:30;;;;;;;2.88;1.00;;;;;;;13.40;89.46;100776.41;10336179;28;96720;-89
2023/12/13 02:27:33;;;;;;;;;;;;;;;13.32;89.75;100783.81;10340718;28;97257;-89
2023/12/13 02:32:38;;;;;;;2.75;1.05;;;;;;;13.32;89.66;100779.38;10309848;28;98257;-89
2023/12/13 02:37:48;;;;;;;6.60;1.27;;;;;;;13.37;89.88;100784.47;10312608;28;96859;-89
2023/12/13 02:42:55;;;;;;;2.50;1.20;;;;;;;13.39;89.66;100782.63;10340524;28;97078;-89
2023/12/13 02:48:01;;;;;;;5.43;1.25;;;;;;;13.41;89.75;100783.41;10340111;28;97313;-89
2023/12/13 02:53:06;;;;;;;5.03;1.35;;;;;;;13.39;89.85;100775.56;10339866;28;96794;-88
2023/12/13 02:58:10;;;;;;;4.05;0.85;;;;;;;13.36;89.74;100788.03;10339701;28;96842;-89
2023/12/13 03:03:13;;;;;;;3.38;0.82;;;;;;;13.32;90.16;100789.09;10339492;28;96816;-88
2023/12/13 03:08:21;;;;;;;2.30;0.93;;;;;;;13.22;90.35;100795.69;10339213;28;97945;-89
2023/12/13 03:13:25;;;;;;;3.35;1.13;;;;;;;13.16;90.89;100798.56;10339877;28;96716;-89
2023/12/13 03:18:28;;;;;;;2.57;1.00;;;;;;;13.16;90.55;100801.22;10338904;28;96828;-88
2023/12/13 03:23:36;;;;;;;1.95;0.98;;;;;;;13.14;90.12;100796.00;10338583;28;96998;-88
2023/12/13 03:28:39;;;;;;;2.13;1.00;;;;;;;13.18;90.07;100786.16;10337354;28;96760;-89
2023/12/13 03:33:43;;;;;;;2.85;1.20;;;;;;;13.11;89.94;100790.84;10337970;28;97131;-89
2023/12/13 03:38:48;;;;;;;3.77;1.00;;;;;;;13.09;90.15;100782.13;10338146;28;96842;-88
2023/12/13 03:43:52;;;;;;;3.63;1.30;;;;;;;13.03;90.25;100779.75;10338466;28;96612;-88
2023/12/13 03:48:55;;;;;;;4.30;1.08;;;;;;;13.07;90.02;100775.19;10337690;28;96765;-88
2023/12/13 03:54:00;;;;;;;3.35;1.20;;;;;;;12.97;89.82;100782.63;10338067;28;97406;-88
2023/12/13 03:59:04;;;;;;;5.10;1.25;;;;;;;12.90;89.85;100783.78;10337740;28;96746;-88
2023/12/13 04:04:07;;;;;;;3.33;1.05;;;;;;;12.81;90.17;100783.31;10338020;28;96865;-89
2023/12/13 04:09:13;;;;;;;4.03;1.10;;;;;;;12.73;90.15;100786.25;10337288;28;96671;-89
2023/12/13 04:14:16;;;;;;;3.55;1.67;;;;;;;12.68;90.19;100776.78;10337514;28;96641;-88
2023/12/13 04:19:20;;;;;;;6.50;1.48;;;;;;;12.69;90.01;100774.09;10335587;28;97208;-89
2023/12/13 04:24:25;;;;;;;2.67;1.33;;;;;;;12.67;89.91;100783.84;10336871;28;96586;-88
2023/12/13 04:29:28;;;;;;;3.60;0.90;;;;;;;12.61;89.85;100785.84;10337017;28;97442;-89
2023/12/13 04:34:31;;;;;;;3.75;1.20;;;;;;;12.40;90.48;100784.91;10336088;28;96657;-89
2023/12/13 04:39:36;;;;;;;3.65;1.17;;;;;;;12.40;89.99;100791.06;10336659;28;97033;-88
2023/12/13 04:44:43;;;;;;;4.43;1.30;;;;;;;12.39;89.69;100783.19;10334876;28;96715;-88
2023/12/13 04:49:46;;;;;;;2.00;0.80;;;;;;;12.19;89.69;100780.44;10336267;28;97085;-89
2023/12/13 04:54:51;;;;;;;2.28;0.63;;;;;;;12.05;90.26;100774.81;10336650;28;97177;-89
2023/12/13 04:59:58;;;;;;;1.92;0.80;;;;;;;11.95;90.29;100782.22;10335824;28;96821;-88
2023/12/13 05:05:02;;;;;;;1.42;0.75;;;;;;;12.04;89.91;100781.03;10335169;28;96620;-87
2023/12/13 05:10:08;;;;;;;5.77;0.77;;;;;;;12.09;89.70;100792.25;10337873;28;97275;-91
2023/12/13 05:15:14;;;;;;;3.90;1.25;;;;;;;12.15;89.84;100792.03;10336809;28;96587;-91
2023/12/13 05:20:28;;;;;;;4.93;0.77;;;;;;;12.27;89.67;100805.63;10356325;28;96611;-92
2023/12/13 05:26:33;;;;;;;;;;;;;;;;;;;;;
2023/12/13 05:32:45;;;;;;;;;;;;;;;;;;;;;
2023/12/13 05:38:32;;;;;;;3.95;0.73;;;;;;;12.14;90.54;100798.22;9969335;29;96909;-93
2023/12/13 05:49:51;;;;;;;3.23;0.70;;;;;;;11.96;90.51;100815.59;10337351;28;96790;-94
2023/12/13 05:55:05;;;;;;;5.07;1.13;;;;;;;12.00;90.59;100818.97;10336292;28;97364;-92
2023/12/13 06:00:18;;;;;;;1.52;0.65;;;;;;;11.99;90.49;100819.91;10343171;28;97248;-93
2023/12/13 06:05:36;;;;;;;2.20;0.88;;;;;;;11.99;90.13;100833.97;10342291;28;97287;-92
2023/12/13 06:11:05;;;;;;;3.78;1.00;;;;;;;11.99;90.05;100833.09;10332895;28;96561;-93
2023/12/13 06:16:15;;;;;;;3.53;0.90;;;;;;;12.03;90.27;100835.53;10340517;28;96839;-92
2023/12/13 06:21:22;;;;;;;4.22;1.50;;;;;;;12.05;89.91;100839.00;10342262;28;96740;-92
2023/12/13 06:26:35;;;;;;;3.35;0.93;;;;;;;12.07;89.57;100836.28;10344351;28;96565;-92
2023/12/13 06:31:47;;;;;;;3.53;0.80;;;;;;;12.02;89.74;100840.88;10341987;28;97303;-92
2023/12/13 06:36:55;;;;;;;3.53;0.73;;;;;;;11.98;90.19;100852.44;10343124;28;96694;-93
2023/12/13 06:42:08;;;;;;;4.47;0.93;;;;;;;11.95;90.06;100847.28;10343563;28;97431;-93
2023/12/13 06:47:20;;;;;;;2.10;0.77;;;;;;;11.83;90.22;100859.16;10342856;28;96979;-91
2023/12/13 06:52:38;;;;;;;2.47;0.80;;;;;;;11.80;90.37;100868.94;10341623;28;96770;-92
2023/12/13 06:57:44;;;;;;;2.92;0.68;;;;;;;11.60;90.50;100866.13;10339186;28;97282;-91
2023/12/13 07:02:57;;;;;;;2.45;0.75;;;;;;;11.54;90.71;100875.09;10341009;28;96908;-91
2023/12/13 07:08:03;;;;;;;8.07;1.00;;;;;;;11.41;90.67;100865.88;10338627;28;96677;-92
2023/12/13 07:13:10;;;;;;;1.13;0.60;;;;;;;11.41;91.34;100872.94;10340149;28;96834;-92
2023/12/13 07:18:21;;;;;;;2.80;0.82;;;;;;;11.32;90.65;100879.34;10340002;28;96734;-91
2023/12/13 07:23:26;;;;;;;1.98;1.15;;;;;;;11.28;90.89;100877.75;10341232;28;97237;-92
2023/12/13 07:28:38;;;;;;;5.38;0.95;;;;;;;11.25;90.55;100878.69;10339510;28;97584;-92
2023/12/13 07:33:49;;;;;;;5.50;0.98;;;;;;;11.13;91.08;100892.25;10340384;28;97554;-91
2023/12/13 07:38:56;;;;;;;2.67;0.60;;;;;;;11.09;91.07;100885.38;10339305;28;97034;-92
2023/12/13 07:44:07;;;;;;;5.28;0.93;;;;;;;11.04;91.22;100894.28;10339783;28;97610;-92
2023/12/13 07:49:19;;;;;;;3.92;0.80;;;;;;;11.10;90.36;100910.78;10337917;28;96629;-92
2023/12/13 07:54:29;;;;;;;1.13;0.70;;;;;;;11.18;90.21;100921.94;10339099;28;96803;-91
2023/12/13 07:59:40;;;;;;;6.00;0.80;;;;;;;11.15;90.00;100927.31;10338643;28;97481;-91
2023/12/13 08:04:53;;;;;;;2.60;0.93;;;;;;;11.10;89.96;100929.22;10338400;28;96635;-92
2023/12/13 08:09:59;;;;;;;3.83;0.90;;;;;;;11.13;90.44;100934.41;10337967;28;97279;-92
2023/12/13 08:15:08;;;;;;;2.53;1.00;;;;;;;11.09;90.03;100940.69;10338528;28;96959;-91
2023/12/13 08:20:19;;;;;;;2.30;1.15;;;;;;;11.15;89.86;100947.50;10337313;28;97203;-92
2023/12/13 08:25:24;;;;;;;2.75;1.10;;;;;;;11.21;90.38;100950.84;10338934;28;97253;-91
2023/12/13 08:30:29;;;;;;;2.40;1.20;;;;;;;11.17;90.27;100948.34;10337323;28;97329;-91
2023/12/13 08:35:35;;;;;;;;;;;;;;;11.20;89.93;100943.84;10337194;28;97311;-90
2023/12/13 08:40:41;;;;;;;1.45;0.90;;;;;;;11.28;90.24;100952.38;10336608;28;97311;-91
2023/12/13 08:45:46;;;;;;;1.55;0.88;;;;;;;11.48;89.87;100950.84;10336932;28;97242;-91
2023/12/13 08:50:53;;;;;;;;;;;;;;;11.53;89.35;100962.13;10337095;28;96735;-90
2023/12/13 08:55:57;;;;;;;1.80;0.90;;;;;;;11.85;89.19;100968.06;10337103;28;97223;-91
2023/12/13 09:01:04;;;;;;;1.63;0.95;;;;;;;11.96;89.25;100978.25;10335673;28;97922;-91
2023/12/13 09:06:24;;;;;;;;;;;;;;;11.68;88.44;100996.78;10347276;28;96674;-90
2023/12/13 09:11:29;;;;;;;3.63;1.10;;;;;;;11.75;88.73;100987.75;10341964;28;98604;-89
2023/12/13 09:16:33;;;;;;;0.95;0.75;;;;;;;11.68;88.77;101006.44;10336289;28;97236;-90
2023/12/13 09:28:26;;;;;;;6.00;1.05;;;;;;;11.70;89.24;101015.16;10336388;28;96841;-92
2023/12/13 09:33:33;;;;;;;6.25;1.25;;;;;;;11.71;88.72;101027.44;10334620;28;96752;-93
2023/12/13 09:39:00;;;;;;;;;;;;;;;11.67;88.80;101029.31;10330116;28;97210;-93
2023/12/13 09:44:25;;;;;;;2.78;0.98;;;;;;;12.00;88.98;101037.91;10336578;28;96607;-92
2023/12/13 09:49:37;;;;;;;3.22;1.00;;;;;;;12.10;88.80;101040.19;10336478;28;96944;-92
2023/12/13 09:54:58;;;;;;;3.85;1.25;;;;;;;12.33;88.41;101044.69;10336052;28;96962;-91
2023/12/13 10:00:05;;;;;;;4.85;1.98;;;;;;;12.51;88.11;101051.97;10335002;28;96983;-90
2023/12/13 10:05:18;;;;;;;4.43;2.08;;;;;;;12.60;88.45;101059.59;10334717;28;96826;-90
2023/12/13 10:10:37;;;;;;;5.53;2.97;;;;;;;12.46;88.04;101062.69;10335717;28;97181;-92
2023/12/13 10:15:43;;;;;;;7.97;4.38;;;;;;;12.63;87.59;101066.53;10334473;28;96880;-90
2023/12/13 10:21:10;;;;;;;7.63;3.97;;;;;;;12.72;87.71;101075.03;10334758;28;97179;-92
2023/12/13 10:26:21;;;;;;;13.32;4.60;;;;;;;12.85;87.13;101084.22;10333926;28;96610;-90
2023/12/13 10:31:31;;;;;;;11.40;5.43;;;;;;;12.89;87.33;101088.50;10314306;28;97430;-91
2023/12/13 10:36:37;;;;;;;9.52;5.10;;;;;;;12.75;88.20;101096.03;10332618;28;96634;-91
2023/12/13 10:41:51;;;;;;;;;;;;;;;12.98;87.84;101096.06;10335746;28;96755;-91
2023/12/13 10:47:02;;;;;;;10.48;4.78;;;;;;;13.08;87.48;101097.50;10342681;28;97336;-91
2023/12/13 10:52:14;;;;;;;7.82;4.40;;;;;;;13.39;87.49;101095.44;10340216;28;96782;-90
2023/12/13 10:57:21;;;;;;;7.57;3.75;;;;;;;13.49;86.79;101094.16;10340359;28;96735;-89
2023/12/13 11:02:32;;;;;;;6.45;3.70;;;;;;;13.07;85.59;101090.47;10341128;28;96732;-90
2023/12/13 11:07:45;;;;;;;7.22;3.38;;;;;;;13.07;85.65;101089.63;10338912;28;97321;-90
2023/12/13 11:12:54;;;;;;;6.32;3.35;;;;;;;13.40;86.03;101088.34;10339284;28;96858;-90
2023/12/13 11:18:03;;;;;;;7.00;3.75;;;;;;;13.54;86.19;101102.78;10338169;28;97563;-90
2023/12/13 11:23:10;;;;;;;8.80;3.20;;;;;;;13.92;85.11;101092.50;10338565;28;96666;-90
2023/12/13 11:28:24;;;;;;;7.65;3.03;;;;;;;13.80;84.47;101093.81;10338908;28;97060;-89
2023/12/13 11:33:36;;;;;;;7.97;2.75;;;;;;;13.64;84.70;101097.97;10338381;28;96676;-89
2023/12/13 11:38:40;;;;;;;6.78;2.55;;;;;;;13.54;84.87;101084.25;10338066;28;97305;-89
2023/12/13 11:43:49;;;;;;;6.63;3.03;;;;;;;13.44;83.86;101072.31;10338085;28;97613;-88
2023/12/13 11:48:54;;;;;;;4.55;2.38;;;;;;;13.47;84.08;101092.47;10338361;28;96740;-87
2023/12/13 11:54:00;;;;;;;4.63;2.50;;;;;;;13.84;83.81;101076.03;10338048;28;96709;-87
2023/12/13 11:59:07;;;;;;;5.70;1.80;;;;;;;14.09;82.04;101069.72;10337478;28;96876;-87
2023/12/13 12:09:15;;;;;;;7.82;1.85;;;;;;;13.97;80.52;101061.41;10332331;28;96943;-87
2023/12/13 12:14:20;;;;;;;4.53;1.55;;;;;;;14.17;81.15;101065.00;10336166;28;96857;-87
2023/12/13 12:19:23;;;;;;;;;;;;;;;14.19;80.11;101055.22;10337518;28;96731;-86
2023/12/13 12:24:28;;;;;;;4.55;2.00;;;;;;;14.25;80.48;101057.59;10336790;28;96972;-87
2023/12/13 12:29:34;;;;;;;5.15;2.00;;;;;;;14.52;80.86;101061.69;10336073;28;97047;-87
2023/12/13 12:34:40;;;;;;;6.25;2.00;;;;;;;14.54;79.16;101062.50;10336675;28;97478;-87
2023/12/13 12:39:44;;;;;;;4.60;1.90;;;;;;;14.64;79.12;101076.22;10336764;28;97101;-87
2023/12/13 12:44:49;;;;;;;5.60;1.70;;;;;;;14.66;78.61;101077.03;10337304;28;96912;-87
2023/12/13 12:49:52;;;;;;;4.75;1.75;;;;;;;14.34;76.84;101067.81;10336361;28;97172;-87
2023/12/13 12:54:56;;;;;;;6.63;1.60;;;;;;;14.49;75.18;101066.28;10336076;28;96657;-87
2023/12/13 13:00:01;;;;;;;4.00;1.77;;;;;;;14.46;77.21;101055.81;10334809;28;96917;-86
2023/12/13 13:05:05;;;;;;;3.75;1.95;;;;;;;14.48;77.18;101044.25;10359844;28;97013;-87
2023/12/13 13:10:10;;;;;;;4.53;1.70;;;;;;;14.51;77.56;101040.59;10334906;28;96588;-86
2023/12/13 13:15:15;;;;;;;3.28;1.13;;;;;;;15.12;73.63;101041.38;10335059;28;96753;-85
2023/12/13 13:20:19;;;;;;;;;;;;;;;16.81;65.22;101028.53;10335183;28;96894;-85
2023/12/13 13:25:22;;;;;;;3.13;1.08;;;;;;;17.64;68.54;101016.84;10335344;28;97629;-85
2023/12/13 13:30:29;;;;;;;;;;;;;;;16.87;67.26;101017.59;10335486;28;96726;-85
2023/12/13 13:35:33;;;;;;;2.47;1.02;;;;;;;15.98;69.25;101018.72;10335356;28;97090;-86
2023/12/13 13:40:36;;;;;;;2.50;0.90;;;;;;;15.52;68.01;101017.41;10334753;28;96786;-85
2023/12/13 13:45:41;;;;;;;4.15;0.98;;;;;;;15.44;67.70;101012.47;10334654;28;97287;-85
2023/12/13 13:50:44;;;;;;;;;;;;;;;15.03;64.64;101010.84;10333566;28;97249;-85
2023/12/13 13:55:48;;;;;;;6.78;1.52;;;;;;;14.93;67.76;101024.59;10334193;28;96921;-84
2023/12/13 14:00:53;;;;;;;6.47;1.00;;;;;;;14.93;68.16;101019.28;10333856;28;96599;-85
2023/12/13 14:05:58;;;;;;;2.92;0.98;;;;;;;14.81;69.34;101023.34;10333912;28;98446;-85
2023/12/13 14:11:03;;;;;;;3.42;1.00;;;;;;;14.71;69.13;101030.00;10333807;28;96607;-85
2023/12/13 14:16:09;;;;;;;5.05;1.33;;;;;;;14.52;68.96;101018.50;10333946;28;96732;-86
2023/12/13 14:21:12;;;;;;;4.50;1.33;;;;;;;14.38;68.50;101016.44;10341090;28;97306;-85
2023/12/13 14:26:16;;;;;;;5.30;1.45;;;;;;;14.44;66.44;101012.66;10341652;28;96913;-85
2023/12/13 14:31:23;;;;;;;5.13;1.20;;;;;;;14.71;67.31;101014.94;10340209;28;97210;-85
2023/12/13 14:36:27;;;;;;;3.90;1.10;;;;;;;15.00;67.24;101018.94;10340323;28;96793;-85
2023/12/13 14:41:31;;;;;;;5.07;1.27;;;;;;;15.98;65.42;101010.75;10339590;28;97152;-86
2023/12/13 14:46:36;;;;;;;5.18;1.35;;;;;;;17.28;62.33;101002.91;10339574;28;96796;-85
2023/12/13 14:51:41;;;;;;;2.97;1.33;;;;;;;17.73;61.53;101016.34;10339460;28;97395;-86
2023/12/13 14:56:44;;;;;;;4.90;1.23;;;;;;;17.62;62.31;101012.59;10364761;28;96679;-85
2023/12/13 15:01:49;;;;;;;2.03;1.02;;;;;;;16.55;64.98;101021.94;10344223;28;96891;-86
2023/12/13 15:06:52;;;;;;;4.80;1.70;;;;;;;15.57;66.48;101029.53;10338980;28;96768;-86
2023/12/13 15:11:56;;;;;;;4.90;2.33;;;;;;;15.18;67.18;101038.47;10339696;28;97006;-85
2023/12/13 15:17:00;;;;;;;5.82;1.80;;;;;;;14.90;67.33;101041.50;10340060;28;96893;-85
2023/12/13 15:22:04;;;;;;;6.25;2.20;;;;;;;14.61;67.10;101040.13;10338524;28;96751;-85
2023/12/13 15:27:08;;;;;;;4.10;2.10;;;;;;;14.46;67.96;101048.75;10339184;28;96989;-85
2023/12/13 15:32:13;;;;;;;4.57;1.60;;;;;;;14.46;67.82;101045.22;10336693;28;96834;-87
2023/12/13 15:37:17;;;;;;;3.95;1.65;;;;;;;14.28;68.48;101057.44;10338536;28;96662;-85
2023/12/13 15:42:21;;;;;;;3.80;1.33;;;;;;;14.23;69.33;101053.31;10338299;28;97313;-85
2023/12/13 15:47:26;;;;;;;2.85;1.40;;;;;;;14.16;69.26;101054.47;10338583;28;97383;-87
2023/12/13 15:52:30;;;;;;;7.32;1.88;;;;;;;14.13;70.32;101062.53;10344843;28;96632;-85
2023/12/13 15:57:33;;;;;;;4.88;1.67;;;;;;;14.07;70.11;101065.44;10357313;28;97212;-85
2023/12/13 16:02:40;;;;;;;3.73;1.57;;;;;;;13.90;70.44;101065.22;10338090;28;96849;-85
2023/12/13 16:07:45;;;;;;;8.20;3.85;;;;;;;13.84;69.51;101073.41;10337645;28;96925;-87
2023/12/13 16:12:48;;;;;;;5.97;2.10;;;;;;;13.88;70.00;101072.38;10337293;28;96960;-85
2023/12/13 16:17:53;;;;;;;4.50;2.03;;;;;;;13.98;71.63;101081.66;10337454;28;96600;-87
2023/12/13 16:22:57;;;;;;;;;;;;;;;13.90;72.94;101081.09;10336762;28;96708;-86
2023/12/13 16:28:02;;;;;;;5.38;1.95;;;;;;;13.78;72.79;101078.94;10337305;28;97113;-85
2023/12/13 16:33:07;;;;;;;5.95;2.03;;;;;;;13.63;73.92;101075.09;10336605;28;97494;-87
2023/12/13 16:38:11;;;;;;;5.72;1.83;;;;;;;13.53;74.55;101079.91;10336228;28;97174;-87
2023/12/13 16:43:15;;;;;;;5.68;2.13;;;;;;;13.54;73.98;101084.25;10335182;28;96588;-87
2023/12/13 16:48:20;;;;;;;5.20;1.98;;;;;;;13.40;73.46;101088.34;10336202;28;97010;-87
2023/12/13 16:53:24;;;;;;;;;;;;;;;13.36;74.45;101100.81;10368970;28;96989;-85
2023/12/13 16:58:27;;;;;;;6.85;2.70;;;;;;;13.24;74.32;101100.44;10340447;28;96864;-85
2023/12/13 17:03:32;;;;;;;8.48;2.70;;;;;;;13.14;74.64;101112.22;10335737;28;97158;-85
2023/12/13 17:08:35;;;;;;;;;;;;;;;13.06;75.03;101119.59;10335853;28;96797;-87
2023/12/13 17:13:40;;;;;;;5.65;1.88;;;;;;;13.04;74.88;101134.63;10334286;28;97282;-86
2023/12/13 17:18:45;;;;;;;9.98;2.65;;;;;;;12.96;74.89;101148.13;10335126;28;97034;-84
2023/12/13 17:23:48;;;;;;;;;;;;;;;12.96;75.33;101157.81;10335718;28;96713;-87
2023/12/13 17:28:53;;;;;;;3.83;2.58;;;;;;;12.94;75.20;101147.31;10335341;28;97013;-87
2023/12/13 17:33:58;;;;;;;7.65;3.20;;;;;;;12.89;75.80;101158.94;10335088;28;96781;-87
2023/12/13 17:39:02;;;;;;;14.13;5.43;;;;;;;12.85;76.06;101174.03;10334614;28;96884;-87
2023/12/13 17:44:05;;;;;;;11.93;4.35;;;;;;;12.87;75.47;101185.41;10335382;28;97031;-87
2023/12/13 17:49:10;;;;;;;6.80;2.92;;;;;;;12.86;75.26;101183.69;10351092;28;96942;-86
2023/12/13 17:54:14;;;;;;;4.60;1.92;;;;;;;12.81;75.47;101192.69;10377277;28;96780;-86
2023/12/13 17:59:18;;;;;;;8.88;2.60;;;;;;;12.79;75.52;101200.66;10341767;28;97236;-87
2023/12/13 18:04:23;;;;;;;5.50;2.08;;;;;;;12.70;75.73;101197.47;10339970;28;96737;-87
2023/12/13 18:09:26;;;;;;;7.40;2.72;;;;;;;12.63;76.22;101196.78;10341650;28;96679;-87
2023/12/13 18:14:30;;;;;;;5.30;2.50;;;;;;;12.67;76.82;101203.69;10340763;28;97001;-86
2023/12/13 18:19:34;;;;;;;7.05;2.85;;;;;;;12.65;76.68;101216.13;10341327;28;97343;-87
2023/12/13 18:24:38;;;;;;;6.93;2.78;;;;;;;12.61;77.16;101219.72;10341124;28;97217;-87
2023/12/13 18:29:41;;;;;;;5.85;2.55;;;;;;;12.64;77.18;101227.56;10340871;28;96696;-87
2023/12/13 18:34:47;;;;;;;6.18;2.47;;;;;;;12.61;77.14;101235.56;10339836;28;96977;-87
2023/12/13 18:39:50;;;;;;;5.22;2.60;;;;;;;12.57;77.45;101239.19;10340723;28;96712;-86
2023/12/13 18:44:54;;;;;;;7.18;2.70;;;;;;;12.54;77.42;101242.81;10340383;28;97133;-87
2023/12/13 18:50:02;;;;;;;7.57;3.00;;;;;;;12.49;77.25;101249.16;10339892;28;97220;-87
2023/12/13 18:55:10;;;;;;;6.22;2.90;;;;;;;12.42;78.11;101253.78;10338885;28;97172;-87
2023/12/13 19:00:14;;;;;;;6.10;2.60;;;;;;;12.34;78.97;101254.94;10339891;28;97157;-87
2023/12/13 19:05:19;;;;;;;7.65;2.67;;;;;;;12.27;79.93;101263.94;10338448;28;97158;-87
2023/12/13 19:10:23;;;;;;;5.88;2.85;;;;;;;12.22;79.99;101271.13;10339775;28;97424;-88
2023/12/13 19:15:27;;;;;;;6.68;3.03;;;;;;;12.12;80.76;101277.56;10340002;28;97204;-87
2023/12/13 19:20:31;;;;;;;7.20;3.63;;;;;;;12.08;80.57;101281.22;10338794;28;96884;-87
2023/12/13 19:25:35;;;;;;;7.88;3.25;;;;;;;11.98;80.74;101296.44;10338777;28;96613;-87
2023/12/13 19:30:38;;;;;;;7.03;3.40;;;;;;;11.90;80.90;101297.56;10355876;28;97373;-87
2023/12/13 19:35:44;;;;;;;7.40;3.60;;;;;;;11.85;81.21;101313.53;10380175;28;97461;-87
2023/12/13 19:40:47;;;;;;;8.77;4.00;;;;;;;11.71;81.54;101320.09;10339217;28;96714;-87
2023/12/13 19:45:51;;;;;;;6.50;3.42;;;;;;;11.56;82.33;101323.16;10363872;28;96736;-87
2023/12/13 19:50:56;;;;;;;9.20;3.83;;;;;;;11.48;82.86;101339.16;10357839;28;97193;-87
2023/12/13 19:55:59;;;;;;;8.77;4.03;;;;;;;11.45;83.15;101343.63;10337902;28;97016;-87
2023/12/13 20:01:02;;;;;;;8.68;3.70;;;;;;;11.44;82.07;101345.44;10338169;28;96602;-87
2023/12/13 20:06:09;;;;;;;10.32;3.65;;;;;;;11.43;82.31;101351.59;10337393;28;96933;-87
2023/12/13 20:11:13;;;;;;;8.57;3.83;;;;;;;11.35;82.94;101370.22;10337484;28;96667;-87
2023/12/13 20:16:16;;;;;;;7.25;3.70;;;;;;;11.21;84.12;101375.00;10337133;28;96932;-87
2023/12/13 20:21:21;;;;;;;8.38;3.65;;;;;;;11.13;83.98;101383.94;10338040;28;97034;-87
2023/12/13 20:26:25;;;;;;;8.55;4.13;;;;;;;11.04;84.33;101384.16;10337171;28;96751;-87
2023/12/13 20:31:30;;;;;;;9.40;3.72;;;;;;;10.99;84.04;101376.34;10337294;28;96761;-87
2023/12/13 20:36:36;;;;;;;8.13;3.85;;;;;;;10.95;83.28;101377.34;10335126;28;96732;-87
2023/12/13 20:41:40;;;;;;;7.80;3.90;;;;;;;10.88;83.25;101386.28;10342467;28;97451;-87
2023/12/13 20:46:43;;;;;;;13.52;4.25;;;;;;;10.93;83.19;101388.78;10353673;28;96816;-87
2023/12/13 20:51:48;;;;;;;6.47;3.55;;;;;;;10.76;84.03;101401.47;10336434;28;96614;-87
2023/12/13 20:56:51;;;;;;;5.75;3.13;;;;;;;10.72;83.40;101410.34;10298605;28;97269;-87
2023/12/13 21:01:55;;;;;;;8.82;3.75;;;;;;;10.56;83.65;101404.53;10302859;28;96661;-87
2023/12/13 21:07:00;;;;;;;5.78;3.35;;;;;;;10.52;83.65;101407.28;10335490;28;97413;-87
2023/12/13 21:12:04;;;;;;;7.88;3.75;;;;;;;10.53;83.69;101411.63;10336336;28;96711;-87
2023/12/13 21:17:08;;;;;;;6.90;3.80;;;;;;;10.57;83.80;101408.91;10335520;28;96869;-87
2023/12/13 21:22:13;;;;;;;8.75;3.40;;;;;;;10.59;83.93;101409.75;10335081;28;96752;-88
2023/12/13 21:27:16;;;;;;;;;;;;;;;10.48;84.57;101397.69;10346956;28;96760;-86
2023/12/13 21:32:19;;;;;;;5.63;2.60;;;;;;;10.26;84.00;101413.91;10366313;28;96837;-87
2023/12/13 21:37:24;;;;;;;6.47;2.85;;;;;;;10.22;84.76;101425.41;10334647;28;96901;-87
2023/12/13 21:42:28;;;;;;;6.47;2.83;;;;;;;10.34;83.58;101424.31;10360731;28;96729;-87
2023/12/13 21:47:31;;;;;;;7.65;3.40;;;;;;;10.15;84.34;101431.69;10334381;28;96819;-87
2023/12/13 21:52:37;;;;;;;5.93;3.03;;;;;;;10.40;83.64;101445.25;10334452;28;96839;-87
2023/12/13 21:57:41;;;;;;;7.47;3.60;;;;;;;10.35;84.33;101447.06;10333925;28;96944;-87
2023/12/13 22:02:44;;;;;;;10.10;4.05;;;;;;;10.52;83.28;101457.28;10335859;28;97046;-87
2023/12/13 22:07:50;;;;;;;8.27;4.25;;;;;;;10.51;84.12;101463.41;10334661;28;96917;-87
2023/12/13 22:12:55;;;;;;;9.10;4.40;;;;;;;10.46;83.71;101474.03;10334441;28;97110;-87
2023/12/13 22:18:05;;;;;;;7.68;4.30;;;;;;;10.46;83.73;101476.69;10332973;28;96689;-87
2023/12/13 22:23:12;;;;;;;13.43;5.28;;;;;;;10.39;83.98;101474.19;10333984;28;96819;-88
2023/12/13 22:28:17;;;;;;;11.52;4.85;;;;;;;10.35;83.99;101481.28;10351161;28;96619;-87
2023/12/13 22:33:21;;;;;;;;;;;;;;;10.43;84.64;101476.75;10334033;28;96712;-87
2023/12/13 22:38:28;;;;;;;8.07;3.50;;;;;;;10.26;83.87;101484.09;10349508;28;96886;-88
2023/12/13 22:43:33;;;;;;;10.07;4.70;;;;;;;10.37;83.53;101492.63;10352873;28;96973;-87
2023/12/13 22:48:38;;;;;;;6.57;4.40;;;;;;;10.30;84.50;101501.53;10340466;28;97333;-87
2023/12/13 22:53:45;;;;;;;;;;;;;;;10.34;84.04;101502.34;10341160;28;97127;-87
2023/12/13 22:58:50;;;;;;;9.45;4.43;;;;;;;10.32;84.15;101520.81;10340044;28;96720;-87
2023/12/13 23:03:55;;;;;;;10.50;4.43;;;;;;;10.32;84.13;101536.59;10339689;28;96646;-87
2023/12/13 23:09:10;;;;;;;5.72;3.63;;;;;;;10.36;84.78;101530.38;10338270;28;97211;-87
2023/12/13 23:14:14;;;;;;;6.53;3.85;;;;;;;10.49;84.66;101531.88;10339477;28;96591;-87
2023/12/13 23:19:19;;;;;;;8.40;4.13;;;;;;;10.43;84.98;101544.28;10339238;28;96595;-87
2023/12/13 23:24:27;;;;;;;;;;;;;;;10.41;85.21;101549.59;10356199;28;96910;-87
2023/12/13 23:29:32;;;;;;;4.90;3.15;;;;;;;10.38;85.23;101552.28;10380459;28;96754;-87
2023/12/13 23:34:36;;;;;;;;;;;;;;;10.47;85.13;101559.13;10374855;28;96945;-87
2023/12/13 23:39:43;;;;;;;9.10;4.53;;;;;;;10.33;85.21;101566.41;10338865;28;97047;-87
2023/12/13 23:44:47;;;;;;;10.50;5.55;;;;;;;10.44;84.76;101572.34;10339323;28;96582;-87
2023/12/13 23:49:52;;;;;;;7.83;4.27;;;;;;;10.59;84.61;101566.81;10337723;28;96699;-87
2023/12/13 23:54:59;;;;;;;;;;;;;;;10.36;84.99;101572.47;10338886;28;97094;-87
